Time;durP1;ratioP1;P1;durP2;ratioP2;P2;SDS_P1;SDS_P2;PMS_P1;PMS_P2;Temp;Humidity;BMP_temperature;BMP_pressure;BME280_temperature;BME280_humidity;BME280_pressure;Samples;Min_cycle;Max_cycle;Signal;HPM_P1;HPM_P2
2020/12/03 00:03:32;;;;;;;35.07;23.67;;;4.00;99.90;;;;;;10588799;28;20690;-81
2020/12/03 00:08:38;;;;;;;30.03;21.80;;;4.10;99.90;;;;;;10595169;28;20211;-80
2020/12/03 00:13:40;;;;;;;33.90;23.07;;;4.10;99.90;;;;;;10586337;28;20237;-80
2020/12/03 00:18:43;;;;;;;32.20;23.93;;;4.10;99.40;;;;;;10589556;28;20211;-82
2020/12/03 00:23:44;;;;;;;32.20;22.73;;;4.10;99.50;;;;;;10590001;28;20199;-80
2020/12/03 00:28:46;;;;;;;32.40;23.00;;;4.00;99.40;;;;;;10591542;28;20650;-82
2020/12/03 00:33:49;;;;;;;33.87;23.43;;;4.00;99.60;;;;;;10589001;27;20236;-82
2020/12/03 00:38:51;;;;;;;28.70;21.60;;;4.00;99.70;;;;;;10590652;28;20272;-82
2020/12/03 00:43:52;;;;;;;31.83;23.23;;;4.10;99.90;;;;;;10590112;28;20206;-80
2020/12/03 00:48:55;;;;;;;33.27;23.50;;;4.10;99.90;;;;;;10590253;28;20594;-80
2020/12/03 00:53:57;;;;;;;34.40;23.77;;;4.20;99.90;;;;;;10571316;28;20290;-81
2020/12/03 00:59:00;;;;;;;32.30;24.40;;;4.20;99.90;;;;;;10589731;28;20717;-80
2020/12/03 01:04:03;;;;;;;33.77;23.53;;;4.30;99.80;;;;;;10584552;28;20207;-81
2020/12/03 01:09:05;;;;;;;32.10;23.20;;;4.30;99.90;;;;;;10587939;28;20211;-81
2020/12/03 01:14:06;;;;;;;31.50;22.97;;;4.30;99.90;;;;;;10586248;28;20210;-80
2020/12/03 01:19:09;;;;;;;30.10;21.67;;;4.30;99.90;;;;;;10583906;28;20769;-80
2020/12/03 01:24:10;;;;;;;32.80;23.90;;;4.40;99.90;;;;;;10586901;28;20206;-81
2020/12/03 01:29:12;;;;;;;32.27;22.70;;;4.40;99.70;;;;;;10558890;27;20254;-81
2020/12/03 01:34:15;;;;;;;34.77;24.20;;;4.40;99.90;;;;;;10545634;28;20223;-82
2020/12/03 01:39:19;;;;;;;30.07;22.23;;;4.30;99.70;;;;;;10549781;28;20246;-81
2020/12/03 01:44:36;;;;;;;33.77;23.40;;;4.30;99.90;;;;;;10551891;28;20199;-82
2020/12/03 01:49:38;;;;;;;34.57;23.90;;;4.30;99.90;;;;;;10551397;28;20678;-82
2020/12/03 01:54:40;;;;;;;30.47;22.83;;;4.40;99.90;;;;;;10561066;28;20184;-81
2020/12/03 01:59:44;;;;;;;36.93;24.13;;;4.30;99.50;;;;;;10559545;28;20199;-81
2020/12/03 02:05:10;;;;;;;36.50;24.87;;;4.20;99.30;;;;;;10546573;28;20199;-81
2020/12/03 02:10:13;;;;;;;35.40;24.90;;;4.10;99.60;;;;;;10542241;28;20217;-80
2020/12/03 02:15:16;;;;;;;36.20;25.90;;;4.00;99.70;;;;;;10543382;28;20357;-81
2020/12/03 02:20:20;;;;;;;35.17;23.17;;;4.10;99.90;;;;;;10542752;28;20298;-81
2020/12/03 02:25:22;;;;;;;34.27;25.60;;;4.00;99.90;;;;;;10546185;28;20294;-82
2020/12/03 02:30:23;;;;;;;37.20;24.87;;;4.00;99.90;;;;;;10550878;28;20227;-81
2020/12/03 02:35:26;;;;;;;35.47;25.57;;;3.90;99.70;;;;;;10552209;28;20223;-81
2020/12/03 02:40:27;;;;;;;38.90;26.33;;;3.90;99.40;;;;;;10551702;28;20228;-81
2020/12/03 02:45:29;;;;;;;38.67;26.10;;;3.70;99.70;;;;;;10551906;28;20214;-82
2020/12/03 02:50:32;;;;;;;37.13;26.30;;;3.60;99.70;;;;;;10551177;28;20188;-81
2020/12/03 02:55:33;;;;;;;39.30;25.83;;;3.50;99.90;;;;;;10551739;28;20687;-81
2020/12/03 03:00:35;;;;;;;43.30;26.53;;;3.60;99.90;;;;;;10551630;28;20579;-81
2020/12/03 03:05:38;;;;;;;35.83;25.83;;;3.60;99.80;;;;;;10556625;28;20283;-82
2020/12/03 03:10:39;;;;;;;40.13;27.30;;;3.50;99.50;;;;;;10557204;28;20194;-81
2020/12/03 03:15:41;;;;;;;39.30;28.17;;;3.50;99.50;;;;;;10555459;28;20675;-82
2020/12/03 03:20:44;;;;;;;36.80;25.90;;;3.40;99.80;;;;;;10554233;28;20242;-81
2020/12/03 03:25:45;;;;;;;39.23;28.20;;;3.40;99.70;;;;;;10550065;28;20265;-80
2020/12/03 03:30:47;;;;;;;43.90;29.27;;;3.30;99.50;;;;;;10547500;28;20179;-80
2020/12/03 03:35:50;;;;;;;40.63;28.20;;;3.30;99.70;;;;;;10548228;28;20291;-82
2020/12/03 03:40:51;;;;;;;40.43;29.80;;;3.30;99.70;;;;;;10550012;28;20226;-80
2020/12/03 03:45:53;;;;;;;42.60;30.10;;;3.30;99.40;;;;;;10549455;28;20279;-81
2020/12/03 03:50:55;;;;;;;37.30;27.53;;;3.30;99.60;;;;;;10555438;28;20176;-82
2020/12/03 03:55:57;;;;;;;41.00;28.80;;;3.20;99.10;;;;;;10555688;28;20200;-82
2020/12/03 04:00:59;;;;;;;34.47;23.03;;;3.20;99.00;;;;;;10554569;28;20208;-83
2020/12/03 04:06:01;;;;;;;42.80;28.00;;;3.10;99.20;;;;;;10547829;28;20295;-80
2020/12/03 04:11:03;;;;;;;39.00;28.70;;;3.20;99.30;;;;;;10550671;28;20223;-80
2020/12/03 04:16:05;;;;;;;39.03;26.97;;;3.20;99.70;;;;;;10545700;28;20215;-80
2020/12/03 04:21:09;;;;;;;40.20;26.73;;;3.30;99.60;;;;;;10547023;28;20303;-82
2020/12/03 04:26:12;;;;;;;40.00;29.50;;;3.50;99.90;;;;;;10548107;28;20247;-82
2020/12/03 04:31:13;;;;;;;36.30;26.57;;;3.60;99.90;;;;;;10549534;28;20278;-81
2020/12/03 04:36:16;;;;;;;36.70;25.63;;;3.70;99.70;;;;;;10548005;28;20224;-80
2020/12/03 04:41:18;;;;;;;37.13;28.27;;;3.80;99.20;;;;;;10549457;28;20261;-81
2020/12/03 04:46:29;;;;;;;30.27;23.87;;;3.90;99.00;;;;;;10551519;28;20219;-82
2020/12/03 04:51:46;;;;;;;35.03;26.00;;;3.90;99.40;;;;;;10552957;28;20196;-82
2020/12/03 04:56:57;;;;;;;34.40;24.87;;;4.00;99.40;;;;;;10568116;28;20229;-82
2020/12/03 05:02:10;;;;;;;36.83;25.80;;;4.10;99.80;;;;;;10599714;28;20242;-83
2020/12/03 05:07:13;;;;;;;31.50;23.80;;;4.10;99.70;;;;;;10577525;28;20215;-84
2020/12/03 05:12:22;;;;;;;30.43;22.80;;;4.20;99.20;;;;;;10570073;28;20223;-82
2020/12/03 05:17:38;;;;;;;24.50;18.43;;;4.30;98.90;;;;;;10602786;28;20203;-81
2020/12/03 05:22:41;;;;;;;26.40;19.50;;;4.30;98.90;;;;;;10586516;28;20306;-83
2020/12/03 05:27:45;;;;;;;26.17;18.47;;;4.40;99.30;;;;;;10559426;28;20212;-84
2020/12/03 05:32:47;;;;;;;22.90;17.50;;;4.40;98.50;;;;;;10524249;28;20263;-84
2020/12/03 05:37:50;;;;;;;21.80;16.67;;;4.40;98.50;;;;;;10534513;28;20608;-83
2020/12/03 05:42:55;;;;;;;19.20;16.00;;;4.40;98.20;;;;;;10537070;28;20405;-85
2020/12/03 05:47:58;;;;;;;21.00;16.73;;;4.40;97.90;;;;;;10545303;28;20679;-84
2020/12/03 05:53:04;;;;;;;19.17;16.00;;;4.40;97.90;;;;;;10582410;28;20195;-81
2020/12/03 05:58:18;;;;;;;19.23;15.80;;;4.40;97.70;;;;;;10583047;28;20265;-82
2020/12/03 06:03:35;;;;;;;17.13;13.23;;;4.40;97.70;;;;;;10579549;28;20386;-83
2020/12/03 06:08:54;;;;;;;15.97;13.17;;;4.30;97.40;;;;;;10581843;28;20697;-82
2020/12/03 06:14:20;;;;;;;12.90;11.60;;;4.30;97.40;;;;;;10577285;28;20248;-84
2020/12/03 06:19:36;;;;;;;15.23;12.73;;;4.30;97.40;;;;;;10576868;28;20920;-84
2020/12/03 06:25:14;;;;;;;14.30;12.17;;;4.40;96.80;;;;;;10582737;28;20245;-84
2020/12/03 06:30:23;;;;;;;11.73;9.87;;;4.40;96.30;;;;;;10576485;28;20282;-85
2020/12/03 06:35:33;;;;;;;13.07;11.10;;;4.50;95.70;;;;;;10581632;28;20760;-83
2020/12/03 06:40:40;;;;;;;13.20;11.50;;;4.50;95.60;;;;;;10583480;28;20226;-84
2020/12/03 06:45:47;;;;;;;12.90;11.33;;;4.50;96.10;;;;;;10582195;28;20211;-84
2020/12/03 06:51:25;;;;;;;16.77;13.00;;;4.60;95.80;;;;;;10565778;28;20263;-84
2020/12/03 06:57:14;;;;;;;14.60;12.90;;;4.60;95.70;;;;;;10576198;28;20215;-84
2020/12/03 07:02:43;;;;;;;16.33;14.17;;;4.60;95.60;;;;;;10577029;28;20239;-83
2020/12/03 07:08:15;;;;;;;17.37;14.80;;;4.60;96.00;;;;;;10583014;28;20215;-83
2020/12/03 07:14:14;;;;;;;16.30;14.00;;;4.70;96.20;;;;;;10585288;28;20219;-83
2020/12/03 07:20:02;;;;;;;15.03;13.53;;;4.70;96.20;;;;;;10587983;28;20703;-84
2020/12/03 07:25:04;;;;;;;16.83;13.97;;;4.70;96.60;;;;;;10569691;28;20226;-84
2020/12/03 07:30:21;;;;;;;14.80;13.03;;;4.70;96.20;;;;;;10587812;28;20219;-83
2020/12/03 07:35:30;;;;;;;17.70;14.50;;;4.70;96.40;;;;;;10588159;28;20301;-83
2020/12/03 07:40:33;;;;;;;15.80;14.10;;;4.70;96.40;;;;;;10584764;28;20191;-82
2020/12/03 07:45:43;;;;;;;14.27;12.50;;;4.70;96.50;;;;;;10568519;28;20264;-82
2020/12/03 07:51:08;;;;;;;12.97;11.70;;;4.70;95.80;;;;;;10577527;28;20192;-84
2020/12/03 07:56:29;;;;;;;12.20;10.60;;;4.70;95.40;;;;;;10581513;28;20235;-83
2020/12/03 08:01:37;;;;;;;12.20;10.90;;;4.80;95.60;;;;;;10584750;28;20241;-82
2020/12/03 08:06:43;;;;;;;11.67;10.30;;;4.90;95.30;;;;;;10588107;28;20248;-84
2020/12/03 08:11:48;;;;;;;10.97;9.87;;;5.00;94.80;;;;;;10571800;28;20199;-84
2020/12/03 08:16:50;;;;;;;9.00;8.10;;;5.00;94.50;;;;;;10584836;28;20220;-84
2020/12/03 08:21:53;;;;;;;9.23;8.37;;;5.00;94.10;;;;;;10578641;28;20297;-82
2020/12/03 08:27:00;;;;;;;7.00;6.30;;;5.10;94.20;;;;;;10587280;28;20219;-84
2020/12/03 08:32:01;;;;;;;7.77;6.97;;;5.20;93.50;;;;;;10579623;28;20288;-84
2020/12/03 08:37:05;;;;;;;9.30;8.30;;;5.20;92.60;;;;;;10587573;28;20223;-84
2020/12/03 08:42:09;;;;;;;10.80;9.73;;;5.30;92.30;;;;;;10571052;28;20317;-84
2020/12/03 08:47:20;;;;;;;13.60;11.07;;;5.20;93.10;;;;;;10587580;28;20647;-83
2020/12/03 08:52:24;;;;;;;12.47;10.50;;;4.90;93.80;;;;;;10580230;28;20195;-84
2020/12/03 08:57:26;;;;;;;15.87;12.90;;;4.70;94.40;;;;;;10549019;28;20223;-84
2020/12/03 09:02:31;;;;;;;13.27;11.87;;;4.50;94.80;;;;;;10585105;28;20218;-83
2020/12/03 09:07:41;;;;;;;15.67;12.47;;;4.50;95.00;;;;;;10568182;28;20638;-84
2020/12/03 09:12:46;;;;;;;14.43;12.30;;;4.60;95.30;;;;;;10585733;28;20836;-82
2020/12/03 09:17:54;;;;;;;14.50;13.00;;;4.70;95.20;;;;;;10565884;27;20298;-84
2020/12/03 09:22:56;;;;;;;14.60;11.83;;;4.80;95.00;;;;;;10583849;27;20230;-82
2020/12/03 09:28:03;;;;;;;15.87;12.97;;;4.90;95.00;;;;;;10581433;28;20215;-83
2020/12/03 09:33:08;;;;;;;13.77;12.37;;;4.90;94.90;;;;;;10550160;28;20199;-83
2020/12/03 09:38:11;;;;;;;14.60;12.23;;;4.90;94.90;;;;;;10582259;28;20229;-83
2020/12/03 09:43:17;;;;;;;16.93;12.80;;;5.00;94.80;;;;;;10578662;28;20225;-82
2020/12/03 09:48:20;;;;;;;15.07;12.70;;;5.20;94.40;;;;;;10564361;28;20222;-82
2020/12/03 09:53:22;;;;;;;15.10;13.43;;;5.20;93.90;;;;;;10567763;28;20209;-81
2020/12/03 09:58:24;;;;;;;13.10;11.70;;;5.30;94.10;;;;;;10578207;28;20335;-83
2020/12/03 10:04:00;;;;;;;16.27;11.70;;;5.40;94.20;;;;;;10578543;28;20218;-83
2020/12/03 10:09:21;;;;;;;11.87;10.57;;;5.60;93.40;;;;;;10539719;28;20219;-83
2020/12/03 10:14:52;;;;;;;13.00;11.60;;;5.60;92.70;;;;;;10583107;28;20191;-82
2020/12/03 10:19:55;;;;;;;13.90;11.33;;;5.50;93.50;;;;;;10573843;28;20196;-83
2020/12/03 10:25:15;;;;;;;15.73;11.40;;;5.60;93.20;;;;;;10566103;28;20268;-82
2020/12/03 10:30:30;;;;;;;11.63;10.20;;;5.70;93.00;;;;;;10575517;28;20202;-81
2020/12/03 10:35:32;;;;;;;12.33;10.47;;;5.70;92.30;;;;;;10579666;28;20238;-83
2020/12/03 10:40:35;;;;;;;11.30;9.40;;;5.70;92.20;;;;;;10582954;28;20186;-82
2020/12/03 10:45:48;;;;;;;12.27;10.97;;;5.70;91.80;;;;;;10579607;28;20223;-82
2020/12/03 10:50:55;;;;;;;11.83;10.00;;;5.60;91.60;;;;;;10595120;28;20179;-81
2020/12/03 10:55:59;;;;;;;15.03;10.07;;;5.60;91.40;;;;;;10626517;28;20199;-81
2020/12/03 11:01:06;;;;;;;12.07;10.87;;;5.70;91.70;;;;;;10615068;27;20207;-84
2020/12/03 11:06:08;;;;;;;11.50;9.63;;;5.80;91.50;;;;;;10589036;28;20306;-84
2020/12/03 11:11:11;;;;;;;10.40;9.00;;;5.90;91.50;;;;;;10590442;28;20183;-83
2020/12/03 11:16:17;;;;;;;9.50;8.60;;;6.00;90.60;;;;;;10589215;28;20215;-83
2020/12/03 11:21:22;;;;;;;9.63;8.63;;;6.10;91.30;;;;;;10598009;28;20207;-83
2020/12/03 11:26:28;;;;;;;9.40;8.50;;;6.20;89.80;;;;;;10588402;28;20211;-84
2020/12/03 11:31:31;;;;;;;9.93;8.93;;;6.20;90.00;;;;;;10588044;28;20281;-84
2020/12/03 11:36:35;;;;;;;9.20;8.20;;;6.10;89.00;;;;;;10588091;28;20271;-83
2020/12/03 11:41:51;;;;;;;12.40;8.87;;;6.10;89.20;;;;;;10589788;28;20662;-83
2020/12/03 11:52:13;;;;;;;8.10;7.30;;;6.10;87.60;;;;;;10587022;28;20195;-83
2020/12/03 11:57:16;;;;;;;8.53;7.23;;;6.10;89.00;;;;;;10586673;28;20245;-84
2020/12/03 12:02:18;;;;;;;12.33;7.10;;;6.10;89.10;;;;;;10586514;28;20235;-84
2020/12/03 12:07:27;;;;;;;9.23;7.30;;;6.20;88.40;;;;;;10587459;28;20218;-81
2020/12/03 12:12:33;;;;;;;8.10;6.90;;;6.20;89.50;;;;;;10567339;28;20260;-84
2020/12/03 12:17:36;;;;;;;7.20;6.33;;;6.20;89.00;;;;;;10584997;28;20620;-84
2020/12/03 12:22:39;;;;;;;8.30;7.37;;;6.30;87.70;;;;;;10567488;28;20557;-81
2020/12/03 12:27:41;;;;;;;9.30;7.93;;;6.30;88.90;;;;;;10608207;28;20219;-81
2020/12/03 12:32:43;;;;;;;8.27;7.33;;;6.30;90.30;;;;;;10602006;28;20237;-81
2020/12/03 12:37:45;;;;;;;8.13;7.30;;;6.40;89.60;;;;;;10590654;28;20238;-81
2020/12/03 12:42:47;;;;;;;7.43;6.63;;;6.50;90.40;;;;;;10592300;28;20294;-81
2020/12/03 12:47:49;;;;;;;10.77;7.20;;;6.60;87.20;;;;;;10595903;28;20211;-80
2020/12/03 12:52:51;;;;;;;7.47;6.77;;;6.50;89.30;;;;;;10591799;28;20212;-80
2020/12/03 12:57:53;;;;;;;8.10;6.90;;;6.50;87.70;;;;;;10589225;28;20226;-80
2020/12/03 13:02:55;;;;;;;7.30;6.40;;;6.40;88.70;;;;;;10590568;28;20239;-81
2020/12/03 13:07:57;;;;;;;8.53;6.37;;;6.40;87.30;;;;;;10584765;28;20215;-82
2020/12/03 13:12:59;;;;;;;7.23;6.53;;;6.40;88.50;;;;;;10600078;27;20206;-81
2020/12/03 13:18:01;;;;;;;7.87;7.03;;;6.40;87.90;;;;;;10599993;27;20246;-81
2020/12/03 13:23:03;;;;;;;9.77;7.77;;;6.40;88.20;;;;;;10583885;28;20218;-81
2020/12/03 13:28:05;;;;;;;9.00;8.10;;;6.50;88.40;;;;;;10600317;27;20226;-80
2020/12/03 13:33:07;;;;;;;7.10;6.50;;;6.40;88.00;;;;;;10585626;28;20198;-80
2020/12/03 13:38:09;;;;;;;7.87;6.27;;;6.50;88.50;;;;;;10585496;28;20306;-82
2020/12/03 13:43:11;;;;;;;8.00;6.60;;;6.60;87.80;;;;;;10592099;28;20286;-81
2020/12/03 13:48:14;;;;;;;7.10;6.40;;;6.50;87.20;;;;;;10607787;28;20230;-80
2020/12/03 13:53:16;;;;;;;7.70;6.90;;;6.30;87.20;;;;;;10591833;28;20640;-80
2020/12/03 13:58:18;;;;;;;8.27;7.47;;;6.20;88.50;;;;;;10561463;28;20218;-81
2020/12/03 14:03:20;;;;;;;10.87;6.97;;;6.10;88.80;;;;;;10581568;28;20240;-80
2020/12/03 14:08:22;;;;;;;7.83;7.03;;;6.10;88.50;;;;;;10586480;28;20221;-80
2020/12/03 14:13:25;;;;;;;10.87;7.97;;;6.00;89.30;;;;;;10581157;28;20294;-81
2020/12/03 14:18:26;;;;;;;8.93;8.00;;;6.00;89.90;;;;;;10581866;28;20564;-81
2020/12/03 14:23:28;;;;;;;7.90;7.20;;;6.00;90.10;;;;;;10586723;27;20241;-81
2020/12/03 14:28:31;;;;;;;9.43;7.77;;;6.10;90.50;;;;;;10565203;28;20215;-81
2020/12/03 14:33:33;;;;;;;8.53;7.63;;;6.10;90.00;;;;;;10571986;28;20191;-81
2020/12/03 14:38:34;;;;;;;7.90;7.10;;;6.20;90.20;;;;;;10591838;28;20712;-81
2020/12/03 14:43:37;;;;;;;9.47;7.83;;;6.10;90.30;;;;;;10596467;28;20218;-81
2020/12/03 14:48:39;;;;;;;11.30;8.60;;;6.10;90.10;;;;;;10599471;28;20215;-81
2020/12/03 14:53:40;;;;;;;12.47;11.17;;;6.00;90.00;;;;;;10593535;28;20655;-80
2020/12/03 14:58:43;;;;;;;10.10;9.00;;;5.80;90.20;;;;;;10591537;28;20219;-82
2020/12/03 15:03:45;;;;;;;10.60;8.37;;;5.70;91.20;;;;;;10594248;27;20283;-81
2020/12/03 15:08:47;;;;;;;11.50;8.83;;;5.80;91.10;;;;;;10583555;28;20899;-80
2020/12/03 15:13:49;;;;;;;9.93;8.50;;;5.80;90.80;;;;;;10581669;28;20179;-81
2020/12/03 15:18:51;;;;;;;11.10;8.93;;;5.80;90.90;;;;;;10585695;28;20233;-80
2020/12/03 15:23:52;;;;;;;11.33;8.73;;;5.70;91.20;;;;;;10583588;28;20234;-81
2020/12/03 15:28:55;;;;;;;10.07;9.07;;;5.60;91.10;;;;;;10551877;28;20247;-80
2020/12/03 15:33:57;;;;;;;9.53;8.57;;;5.50;91.50;;;;;;10565050;28;20926;-81
2020/12/03 15:38:58;;;;;;;9.20;8.10;;;5.40;91.70;;;;;;10580436;28;20219;-81
2020/12/03 15:44:01;;;;;;;11.80;10.00;;;5.40;92.10;;;;;;10584031;28;20219;-81
2020/12/03 15:49:02;;;;;;;10.50;9.40;;;5.30;92.20;;;;;;10567644;28;20219;-80
2020/12/03 15:54:04;;;;;;;13.40;9.77;;;5.20;92.50;;;;;;10585065;28;20557;-81
2020/12/03 15:59:07;;;;;;;11.63;9.70;;;5.10;92.70;;;;;;10592139;28;20223;-81
2020/12/03 16:04:08;;;;;;;10.47;9.37;;;5.00;92.80;;;;;;10583075;27;20277;-80
2020/12/03 16:09:11;;;;;;;11.10;9.27;;;5.00;93.10;;;;;;10585138;28;20283;-80
2020/12/03 16:14:14;;;;;;;11.77;10.17;;;4.90;92.80;;;;;;10585528;28;20211;-81
2020/12/03 16:19:16;;;;;;;9.60;8.50;;;4.90;93.00;;;;;;10584628;28;20591;-80
2020/12/03 16:24:17;;;;;;;10.13;9.03;;;4.90;92.70;;;;;;10561983;27;20591;-81
2020/12/03 16:29:20;;;;;;;10.43;9.43;;;4.80;93.00;;;;;;10580894;28;20257;-80
2020/12/03 16:34:22;;;;;;;11.00;9.73;;;4.80;92.40;;;;;;10584641;28;20183;-81
2020/12/03 16:39:23;;;;;;;10.37;9.10;;;4.80;92.40;;;;;;10580117;28;20248;-81
2020/12/03 16:44:26;;;;;;;9.50;8.57;;;4.80;92.50;;;;;;10555006;28;20219;-80
2020/12/03 16:49:28;;;;;;;9.60;8.67;;;4.70;92.20;;;;;;10556002;28;20844;-80
2020/12/03 16:54:29;;;;;;;10.87;9.77;;;4.70;92.10;;;;;;10588319;28;20184;-81
2020/12/03 16:59:33;;;;;;;9.63;8.70;;;4.60;91.90;;;;;;10588873;28;20203;-80
2020/12/03 17:04:34;;;;;;;11.13;10.00;;;4.50;91.90;;;;;;10589381;28;20663;-80
2020/12/03 17:09:36;;;;;;;11.43;10.23;;;4.40;92.00;;;;;;10558790;28;20623;-80
2020/12/03 17:14:39;;;;;;;10.60;9.50;;;4.40;92.20;;;;;;10585908;28;20202;-80
2020/12/03 17:19:40;;;;;;;10.60;9.50;;;4.30;92.30;;;;;;10590147;28;20210;-80
2020/12/03 17:24:43;;;;;;;13.43;10.47;;;4.20;92.40;;;;;;10590059;28;20202;-80
2020/12/03 17:29:46;;;;;;;11.77;10.57;;;4.20;92.70;;;;;;10590280;28;20656;-80
2020/12/03 17:34:47;;;;;;;10.03;9.07;;;4.20;92.60;;;;;;10589383;28;20244;-80
2020/12/03 17:39:49;;;;;;;10.50;9.40;;;4.20;92.50;;;;;;10585181;28;20195;-81
2020/12/03 17:44:54;;;;;;;11.80;10.60;;;4.20;92.50;;;;;;10591080;27;20365;-81
2020/12/03 17:49:56;;;;;;;11.00;9.47;;;4.20;92.50;;;;;;10583218;28;20574;-80
2020/12/03 17:54:58;;;;;;;11.17;10.07;;;4.30;92.90;;;;;;10587366;28;20211;-80
2020/12/03 18:00:00;;;;;;;11.90;10.60;;;4.30;92.70;;;;;;10583400;27;20282;-81
2020/12/03 18:05:03;;;;;;;11.47;10.30;;;4.30;92.70;;;;;;10575763;28;20972;-81
2020/12/03 18:10:06;;;;;;;11.30;10.10;;;4.40;92.20;;;;;;10565462;28;20249;-80
2020/12/03 18:15:09;;;;;;;11.10;10.07;;;4.40;92.60;;;;;;10571717;28;20218;-80
2020/12/03 18:20:10;;;;;;;11.03;9.97;;;4.40;92.30;;;;;;10579367;28;20210;-80
2020/12/03 18:25:12;;;;;;;13.23;11.83;;;4.40;92.00;;;;;;10607171;28;20230;-81
2020/12/03 18:30:14;;;;;;;13.73;12.33;;;4.40;91.80;;;;;;10569303;28;20282;-82
2020/12/03 18:35:16;;;;;;;14.73;13.10;;;4.40;92.00;;;;;;10575022;28;20251;-82
2020/12/03 18:40:18;;;;;;;12.43;10.80;;;4.40;92.10;;;;;;10574529;28;20758;-81
2020/12/03 18:45:21;;;;;;;11.83;10.63;;;4.40;91.80;;;;;;10586262;28;20371;-81
2020/12/03 18:50:22;;;;;;;12.07;10.87;;;4.40;91.80;;;;;;10561973;28;20660;-83
2020/12/03 18:55:24;;;;;;;10.70;9.70;;;4.40;92.00;;;;;;10561137;28;20690;-83
2020/12/03 19:00:26;;;;;;;11.37;10.37;;;4.40;91.80;;;;;;10559720;28;20222;-83
2020/12/03 19:05:33;;;;;;;11.57;10.37;;;4.40;91.60;;;;;;10575227;28;20250;-84
2020/12/03 19:10:38;;;;;;;12.93;11.63;;;4.40;91.80;;;;;;10578188;27;20223;-83
2020/12/03 19:15:40;;;;;;;13.47;11.47;;;4.50;91.50;;;;;;10588878;28;20211;-82
2020/12/03 19:20:42;;;;;;;13.47;12.07;;;4.40;91.90;;;;;;10592914;27;20198;-84
2020/12/03 19:25:44;;;;;;;14.43;12.10;;;4.50;92.00;;;;;;10619178;27;20215;-84
2020/12/03 19:30:46;;;;;;;12.37;11.17;;;4.50;91.20;;;;;;10611318;28;20217;-84
2020/12/03 19:35:48;;;;;;;13.07;11.70;;;4.50;91.90;;;;;;10587994;28;20239;-85
2020/12/03 19:40:50;;;;;;;13.20;11.90;;;4.50;91.70;;;;;;10584985;28;20239;-83
2020/12/03 19:45:52;;;;;;;14.23;12.83;;;4.50;91.60;;;;;;10583218;27;20264;-84
2020/12/03 19:50:54;;;;;;;13.20;12.00;;;4.50;92.30;;;;;;10589690;28;20209;-83
2020/12/03 19:55:56;;;;;;;13.50;12.13;;;4.50;91.50;;;;;;10585972;28;20247;-83
2020/12/03 20:00:58;;;;;;;11.67;10.47;;;4.50;91.90;;;;;;10587068;27;20203;-84
2020/12/03 20:06:00;;;;;;;12.00;10.90;;;4.60;91.70;;;;;;10586030;28;20277;-84
2020/12/03 20:11:01;;;;;;;12.60;11.30;;;4.60;92.20;;;;;;10587992;28;20191;-84
2020/12/03 20:16:05;;;;;;;12.80;11.23;;;4.60;92.30;;;;;;10584846;28;20219;-83
2020/12/03 20:21:06;;;;;;;12.20;10.90;;;4.60;91.80;;;;;;10579985;28;20191;-81
2020/12/03 20:26:08;;;;;;;12.50;11.07;;;4.60;92.40;;;;;;10582978;27;20235;-83
2020/12/03 20:31:12;;;;;;;12.23;10.93;;;4.70;92.00;;;;;;10558535;27;20203;-82
2020/12/03 20:36:17;;;;;;;11.57;10.37;;;4.80;92.50;;;;;;10566555;27;20600;-81
2020/12/03 20:41:22;;;;;;;12.03;10.20;;;4.80;91.00;;;;;;10572962;27;20210;-84
2020/12/03 20:46:25;;;;;;;11.70;10.60;;;4.80;91.60;;;;;;10554094;28;20768;-81
2020/12/03 20:51:27;;;;;;;12.83;11.53;;;4.80;91.70;;;;;;10571206;28;20202;-82
2020/12/03 20:56:28;;;;;;;11.53;10.33;;;4.80;91.60;;;;;;10573493;28;20336;-82
2020/12/03 21:01:31;;;;;;;12.30;11.00;;;4.90;91.70;;;;;;10572831;28;20256;-81
2020/12/03 21:06:33;;;;;;;10.83;9.27;;;5.00;91.60;;;;;;10577050;28;20211;-83
2020/12/03 21:11:36;;;;;;;12.27;11.07;;;5.00;91.60;;;;;;10577169;27;20199;-83
2020/12/03 21:16:38;;;;;;;12.17;10.87;;;5.00;90.90;;;;;;10580504;28;20363;-84
2020/12/03 21:21:40;;;;;;;10.07;9.07;;;5.00;90.60;;;;;;10595142;28;20191;-80
2020/12/03 21:26:42;;;;;;;10.83;9.83;;;5.00;90.10;;;;;;10566811;28;20806;-83
2020/12/03 21:31:44;;;;;;;11.97;10.80;;;4.90;91.10;;;;;;10576600;28;20203;-82
2020/12/03 21:36:46;;;;;;;11.17;10.07;;;5.00;91.30;;;;;;10571992;28;20223;-81
2020/12/03 21:41:52;;;;;;;13.27;11.47;;;5.10;91.70;;;;;;10554157;27;20223;-83
2020/12/03 21:46:54;;;;;;;12.00;10.80;;;5.10;91.40;;;;;;10572618;28;20211;-83
2020/12/03 21:51:56;;;;;;;11.27;10.13;;;5.20;91.00;;;;;;10571140;28;20313;-82
2020/12/03 21:57:00;;;;;;;13.83;11.67;;;5.20;91.20;;;;;;10571785;28;20216;-82
2020/12/03 22:02:04;;;;;;;13.07;11.40;;;5.30;91.20;;;;;;10567935;28;20211;-79
2020/12/03 22:07:05;;;;;;;11.23;10.13;;;5.30;90.80;;;;;;10591265;28;20272;-82
2020/12/03 22:12:07;;;;;;;11.50;10.40;;;5.30;91.20;;;;;;10544248;28;20195;-81
2020/12/03 22:17:10;;;;;;;13.40;12.00;;;5.30;91.30;;;;;;10570058;28;20620;-82
2020/12/03 22:22:12;;;;;;;12.80;11.50;;;5.30;90.90;;;;;;10579678;28;20242;-82
2020/12/03 22:27:13;;;;;;;14.30;11.73;;;5.30;91.20;;;;;;10576310;28;20253;-82
2020/12/03 22:32:16;;;;;;;11.83;10.63;;;5.30;91.20;;;;;;10552818;28;20622;-81
2020/12/03 22:37:17;;;;;;;12.60;11.27;;;5.30;90.70;;;;;;10572524;28;20230;-81
2020/12/03 22:42:19;;;;;;;12.00;10.80;;;5.30;90.80;;;;;;10573293;28;20703;-84
2020/12/03 22:47:22;;;;;;;14.47;12.00;;;5.30;91.00;;;;;;10581896;28;20395;-81
2020/12/03 22:52:23;;;;;;;11.40;10.20;;;5.40;90.20;;;;;;10581052;28;20195;-82
2020/12/03 22:57:26;;;;;;;12.93;11.63;;;5.30;90.10;;;;;;10577661;28;20251;-82
2020/12/03 23:02:28;;;;;;;13.10;10.83;;;5.30;90.50;;;;;;10579319;28;20991;-82
2020/12/03 23:07:30;;;;;;;13.23;11.70;;;5.30;90.70;;;;;;10581498;28;20238;-82
2020/12/03 23:12:32;;;;;;;13.23;11.93;;;5.30;90.70;;;;;;10580670;28;20702;-81
2020/12/03 23:17:34;;;;;;;14.30;11.57;;;5.40;90.90;;;;;;10580585;28;20766;-81
2020/12/03 23:22:38;;;;;;;12.30;10.63;;;5.30;90.60;;;;;;10580144;28;20203;-82
2020/12/03 23:27:39;;;;;;;12.73;11.20;;;5.40;90.90;;;;;;10568289;28;20222;-82
2020/12/03 23:32:42;;;;;;;11.87;10.27;;;5.40;90.10;;;;;;10579423;28;20246;-81
2020/12/03 23:37:44;;;;;;;14.23;12.20;;;5.50;90.40;;;;;;10582395;28;20227;-82
2020/12/03 23:42:45;;;;;;;13.50;12.10;;;5.50;90.00;;;;;;10582834;28;20222;-84
2020/12/03 23:47:48;;;;;;;14.27;11.70;;;5.50;90.10;;;;;;10562660;28;20598;-84
2020/12/03 23:52:50;;;;;;;13.93;12.50;;;5.50;90.10;;;;;;10578889;28;20278;-84
2020/12/03 23:57:51;;;;;;;12.30;11.00;;;5.50;90.70;;;;;;10569389;28;20917;-84
